Time;durP1;ratioP1;P1;durP2;ratioP2;P2;SDS_P1;SDS_P2;PMS_P1;PMS_P2;Temp;Humidity;BMP_temperature;BMP_pressure;BME280_temperature;BME280_humidity;BME280_pressure;Samples;Min_cycle;Max_cycle;Signal;HPM_P1;HPM_P2
2021/11/17 02:26:23;;;;;;;0.40;0.30;;;;;;;6.57;95.54;101389.91;5075782;28;20405;-70
2021/11/17 02:29:19;;;;;;;0.40;0.30;;;;;;;6.58;94.88;101388.03;5075853;28;20490;-71
2021/11/17 02:32:02;;;;;;;0.40;0.30;;;;;;;6.52;94.69;101379.09;5067731;28;20536;-71
2021/11/17 02:34:44;;;;;;;7.40;2.97;;;;;;;6.46;95.62;101381.97;5075303;28;20864;-70
2021/11/17 02:37:26;;;;;;;0.40;0.20;;;;;;;6.48;95.67;101379.88;5075764;28;20428;-70
2021/11/17 02:40:17;;;;;;;0.40;0.20;;;;;;;6.45;94.82;101374.97;5075576;28;20430;-70
2021/11/17 02:43:11;;;;;;;0.40;0.30;;;;;;;6.31;94.48;101379.97;5074967;28;20990;-71
2021/11/17 02:45:53;;;;;;;0.40;0.30;;;;;;;6.29;95.02;101380.22;5075592;28;20801;-69
2021/11/17 02:48:32;;;;;;;0.40;0.30;;;;;;;6.23;95.02;101381.22;5075558;28;20793;-69
2021/11/17 02:51:28;;;;;;;0.40;0.30;;;;;;;6.25;94.29;101371.03;5075204;28;20524;-70
2021/11/17 02:54:09;;;;;;;0.40;0.30;;;;;;;6.26;94.01;101375.34;5074966;28;21004;-69
2021/11/17 02:56:48;;;;;;;0.40;0.30;;;;;;;6.21;93.99;101377.97;5075490;28;20902;-70
2021/11/17 02:59:37;;;;;;;0.40;0.30;;;;;;;6.20;94.01;101384.44;5075320;28;20417;-69
2021/11/17 03:02:25;;;;;;;0.40;0.27;;;;;;;6.23;93.89;101377.72;5074936;28;20911;-70
2021/11/17 03:05:10;;;;;;;0.40;0.20;;;;;;;6.28;94.09;101383.94;5075155;28;20437;-71
2021/11/17 03:07:58;;;;;;;0.40;0.30;;;;;;;6.30;93.22;101376.47;5075288;28;20429;-70
2021/11/17 03:10:47;;;;;;;0.40;0.30;;;;;;;6.32;91.98;101378.88;5075153;28;20444;-69
2021/11/17 03:13:29;;;;;;;0.50;0.50;;;;;;;6.31;92.11;101385.34;5074614;28;20971;-69
2021/11/17 03:16:11;;;;;;;0.40;0.30;;;;;;;6.29;91.95;101380.22;5074672;28;20800;-69
2021/11/17 03:18:56;;;;;;;0.40;0.20;;;;;;;6.26;92.14;101378.03;5074925;28;20433;-69
2021/11/17 03:21:38;;;;;;;0.40;0.30;;;;;;;6.26;92.51;101386.09;5074523;28;20514;-70
2021/11/17 03:24:26;;;;;;;0.50;0.43;;;;;;;6.30;92.90;101381.84;5074625;28;20816;-70
2021/11/17 03:27:06;;;;;;;0.40;0.20;;;;;;;6.36;92.96;101387.28;5074470;28;20432;-71
2021/11/17 03:29:53;;;;;;;0.97;0.97;;;;;;;6.34;92.99;101389.41;5074767;28;20421;-71
2021/11/17 03:32:35;;;;;;;0.40;0.30;;;;;;;6.36;93.09;101387.28;5074813;28;20855;-70
2021/11/17 03:35:25;;;;;;;0.40;0.30;;;;;;;6.32;93.25;101382.38;5074636;28;20488;-70
2021/11/17 03:38:14;;;;;;;0.40;0.20;;;;;;;6.27;93.43;101376.94;5074630;28;20449;-69
2021/11/17 03:41:05;;;;;;;0.40;0.20;;;;;;;6.25;94.58;101376.41;5074326;28;20831;-70
2021/11/17 03:43:57;;;;;;;0.40;0.20;;;;;;;6.22;94.26;101378.78;5074489;28;20457;-70
2021/11/17 03:46:46;;;;;;;0.40;0.30;;;;;;;6.25;95.68;101375.59;5074231;28;20456;-69
2021/11/17 03:49:31;;;;;;;0.40;0.30;;;;;;;6.23;95.52;101375.03;5074028;28;20831;-70
2021/11/17 03:52:12;;;;;;;0.40;0.30;;;;;;;6.19;95.97;101372.03;5074369;28;20425;-68
2021/11/17 03:54:58;;;;;;;0.40;0.30;;;;;;;6.19;96.10;101372.03;5074097;28;20492;-70
2021/11/17 03:57:37;;;;;;;0.40;0.20;;;;;;;6.17;96.23;101370.66;5074216;28;20432;-70
2021/11/17 04:00:27;;;;;;;0.40;0.20;;;;;;;6.15;96.02;101367.41;5073804;28;20422;-70
2021/11/17 04:03:23;;;;;;;0.40;0.30;;;;;;;6.11;96.49;101367.09;5073764;28;20473;-70
2021/11/17 04:06:01;;;;;;;1.13;1.13;;;;;;;6.07;96.89;101369.47;5073994;28;20433;-70
2021/11/17 04:08:41;;;;;;;0.40;0.30;;;;;;;6.05;97.17;101376.97;5073737;28;20921;-69
2021/11/17 04:11:29;;;;;;;0.40;0.30;;;;;;;5.99;97.94;101372.59;5073992;28;20433;-70
2021/11/17 04:14:05;;;;;;;0.40;0.30;;;;;;;6.01;97.59;101373.16;5073690;28;20498;-69
2021/11/17 04:16:44;;;;;;;0.40;0.30;;;;;;;6.01;97.64;101373.16;5073837;28;20424;-69
2021/11/17 04:19:23;;;;;;;0.50;0.50;;;;;;;5.97;98.36;101374.72;5073786;28;20445;-70
2021/11/17 04:22:04;;;;;;;0.40;0.27;;;;;;;5.96;98.61;101373.09;5092548;22;20493;-84
2021/11/17 04:24:46;;;;;;;0.40;0.30;;;;;;;5.94;97.93;101369.88;5078399;28;20895;-84
2021/11/17 04:27:36;;;;;;;0.40;0.27;;;;;;;5.92;98.02;101366.59;5078354;28;20450;-83
2021/11/17 04:33:06;;;;;;;0.40;0.30;;;;;;;5.92;98.14;101361.22;5110530;28;20845;-70
2021/11/17 04:36:01;;;;;;;0.40;0.30;;;;;;;5.95;97.69;101360.72;5114088;28;20475;-70
2021/11/17 04:38:50;;;;;;;0.40;0.30;;;;;;;5.93;96.90;101362.88;5114075;28;20421;-69
2021/11/17 04:41:55;;;;;;;0.40;0.30;;;;;;;5.93;96.96;101360.19;5104592;28;20488;-70
2021/11/17 04:44:48;;;;;;;0.40;0.30;;;;;;;5.95;97.15;101359.91;5093678;28;20436;-69
2021/11/17 04:47:28;;;;;;;0.40;0.30;;;;;;;5.90;96.67;101357.13;5093616;28;20436;-69
2021/11/17 04:50:13;;;;;;;0.40;0.30;;;;;;;5.86;96.56;101359.50;5093624;28;20811;-70
2021/11/17 04:52:55;;;;;;;0.40;0.20;;;;;;;5.87;97.13;101363.81;5093563;28;20425;-69
2021/11/17 04:55:41;;;;;;;0.40;0.20;;;;;;;5.86;96.46;101362.19;5092907;28;20486;-70
2021/11/17 04:58:32;;;;;;;0.40;0.20;;;;;;;5.83;97.22;101358.13;5093005;28;20465;-70
2021/11/17 05:01:18;;;;;;;2.57;2.10;;;;;;;5.89;96.39;101360.88;5093019;28;20961;-70
2021/11/17 05:03:57;;;;;;;0.40;0.20;;;;;;;5.88;95.87;101361.94;5093047;28;20909;-70
2021/11/17 05:06:36;;;;;;;0.40;0.30;;;;;;;5.86;96.27;101367.56;5093342;28;20428;-70
2021/11/17 05:09:11;;;;;;;0.40;0.30;;;;;;;5.88;95.79;101357.38;5093349;28;20424;-71
2021/11/17 05:11:51;;;;;;;0.40;0.30;;;;;;;5.87;95.69;101361.13;5093205;28;20468;-71
2021/11/17 05:14:27;;;;;;;0.40;0.30;;;;;;;5.83;96.64;101366.19;5093210;28;20460;-69
2021/11/17 05:17:07;;;;;;;0.40;0.23;;;;;;;5.86;97.08;101361.38;5093203;28;20429;-71
2021/11/17 05:19:40;;;;;;;0.40;0.30;;;;;;;5.89;96.99;101366.25;5093261;28;20440;-71
2021/11/17 05:22:21;;;;;;;0.40;0.30;;;;;;;5.87;96.60;101363.00;5093143;28;20456;-71
2021/11/17 05:25:05;;;;;;;0.40;0.30;;;;;;;5.87;97.12;101368.38;5093139;28;20417;-71
2021/11/17 05:27:54;;;;;;;0.40;0.30;;;;;;;5.88;97.33;101359.25;5093143;28;20428;-71
2021/11/17 05:30:46;;;;;;;0.40;0.20;;;;;;;5.89;98.12;101360.88;5092802;28;20413;-71
2021/11/17 05:33:28;;;;;;;0.40;0.20;;;;;;;5.90;97.76;101359.84;5092229;28;20444;-71
2021/11/17 05:36:06;;;;;;;0.40;0.30;;;;;;;5.91;97.73;101361.44;5092803;28;20468;-72
2021/11/17 05:38:44;;;;;;;0.40;0.30;;;;;;;5.93;98.12;101362.03;5092641;28;20941;-72
2021/11/17 05:41:31;;;;;;;0.40;0.30;;;;;;;5.95;98.82;101357.22;5092435;28;21070;-71
2021/11/17 05:44:11;;;;;;;4.00;3.60;;;;;;;5.99;98.00;101361.84;5092615;28;20425;-71
2021/11/17 05:46:52;;;;;;;0.40;0.20;;;;;;;5.96;98.00;101350.78;5093081;28;20420;-70
2021/11/17 05:49:31;;;;;;;0.40;0.20;;;;;;;5.94;97.58;101356.41;5093012;28;20427;-71
2021/11/17 05:52:11;;;;;;;0.40;0.30;;;;;;;5.95;97.28;101357.22;5092834;28;20467;-71
2021/11/17 05:54:53;;;;;;;0.40;0.20;;;;;;;5.96;97.60;101366.91;5092877;28;20460;-71
2021/11/17 05:57:32;;;;;;;2.83;2.63;;;;;;;5.97;97.31;101369.34;5092893;28;20428;-71
2021/11/17 06:00:22;;;;;;;0.40;0.30;;;;;;;5.92;96.29;101379.22;5092891;28;20421;-71
2021/11/17 06:03:06;;;;;;;0.40;0.30;;;;;;;5.88;96.79;101378.06;5092919;28;20785;-73
2021/11/17 06:05:32;;;;;;;0.40;0.20;;;;;;;5.87;97.42;101373.75;5092889;28;20803;-71
2021/11/17 06:07:59;;;;;;;0.40;0.20;;;;;;;5.84;98.46;101375.06;5093853;28;20428;-72
2021/11/17 06:10:30;;;;;;;0.40;0.27;;;;;;;5.86;98.88;101380.22;5096408;28;20436;-72
2021/11/17 06:12:57;;;;;;;0.40;0.20;;;;;;;5.85;98.90;101373.22;5096444;28;20473;-72
2021/11/17 06:15:23;;;;;;;0.40;0.30;;;;;;;5.83;98.81;101378.81;5096520;28;20858;-76
2021/11/17 06:17:53;;;;;;;0.40;0.30;;;;;;;5.78;99.12;101371.50;5096468;28;20444;-72
2021/11/17 06:20:21;;;;;;;0.47;0.33;;;;;;;5.77;99.65;101375.25;5095936;28;20439;-72
2021/11/17 06:22:51;;;;;;;0.40;0.30;;;;;;;5.74;100.00;101367.69;5096312;28;20432;-71
2021/11/17 06:25:19;;;;;;;0.40;0.30;;;;;;;5.74;100.00;101366.88;5096191;28;20444;-72
2021/11/17 06:27:50;;;;;;;0.40;0.30;;;;;;;5.71;100.00;101365.53;5094934;28;20447;-72
2021/11/17 06:30:19;;;;;;;0.40;0.30;;;;;;;5.70;100.00;101371.94;5095893;28;20433;-72
2021/11/17 06:32:46;;;;;;;0.40;0.20;;;;;;;5.71;100.00;101375.44;5096126;28;20432;-71
2021/11/17 06:35:16;;;;;;;0.40;0.30;;;;;;;5.74;100.00;101369.56;5095082;28;20484;-71
2021/11/17 06:37:43;;;;;;;0.40;0.27;;;;;;;5.73;100.00;101368.75;5095933;28;20451;-71
2021/11/17 06:40:15;;;;;;;0.40;0.30;;;;;;;5.76;100.00;101372.84;5095535;28;20448;-72
2021/11/17 06:42:43;;;;;;;0.40;0.30;;;;;;;5.78;100.00;101374.19;5095865;28;20432;-71
2021/11/17 06:45:14;;;;;;;0.40;0.30;;;;;;;5.79;100.00;101373.13;5095699;28;20493;-71
2021/11/17 06:47:40;;;;;;;0.40;0.30;;;;;;;5.80;100.00;101366.72;5095772;28;20448;-71
2021/11/17 06:50:08;;;;;;;0.40;0.20;;;;;;;5.83;100.00;101373.44;5095396;28;20956;-71
2021/11/17 06:52:35;;;;;;;0.40;0.30;;;;;;;5.80;100.00;101371.28;5095580;28;20817;-71
2021/11/17 06:55:01;;;;;;;0.40;0.30;;;;;;;5.79;100.00;101367.75;5095557;28;20480;-72
2021/11/17 06:57:28;;;;;;;0.40;0.30;;;;;;;5.75;100.00;101374.69;5095561;28;20444;-70
2021/11/17 06:59:54;;;;;;;0.40;0.30;;;;;;;5.77;100.00;101391.38;5095129;28;20961;-72
2021/11/17 07:02:22;;;;;;;0.40;0.30;;;;;;;5.74;100.00;101378.44;5095420;28;20468;-71
2021/11/17 07:04:48;;;;;;;0.40;0.23;;;;;;;5.74;100.00;101383.81;5095104;28;20810;-72
2021/11/17 07:07:16;;;;;;;0.40;0.30;;;;;;;5.68;100.00;101387.50;5095385;28;20440;-70
2021/11/17 07:09:44;;;;;;;0.40;0.30;;;;;;;5.74;100.00;101378.44;5095279;28;20460;-70
2021/11/17 07:12:12;;;;;;;0.40;0.30;;;;;;;5.75;100.00;101382.75;5094945;28;20581;-69
2021/11/17 07:14:40;;;;;;;0.40;0.20;;;;;;;5.71;100.00;101378.97;5095188;28;20575;-70
2021/11/17 07:17:07;;;;;;;0.40;0.30;;;;;;;5.72;100.00;101377.88;5095214;28;20448;-70
2021/11/17 07:19:35;;;;;;;0.50;0.40;;;;;;;5.77;100.00;101385.22;5093894;28;20437;-70
2021/11/17 07:22:03;;;;;;;0.40;0.20;;;;;;;5.70;100.00;101393.44;5095012;28;20464;-69
2021/11/17 07:24:31;;;;;;;0.40;0.30;;;;;;;5.75;100.00;101392.69;5095061;28;20428;-69
2021/11/17 07:26:57;;;;;;;0.40;0.30;;;;;;;5.77;100.00;101394.06;5095006;28;20497;-69
2021/11/17 07:29:24;;;;;;;0.40;0.27;;;;;;;5.69;100.00;101399.06;5094916;28;20811;-69
2021/11/17 07:31:51;;;;;;;0.40;0.27;;;;;;;5.73;100.00;101392.94;5094441;28;20509;-69
2021/11/17 07:34:18;;;;;;;0.40;0.30;;;;;;;5.73;100.00;101398.31;5094862;28;20538;-69
2021/11/17 07:36:46;;;;;;;0.40;0.20;;;;;;;5.76;100.00;101392.47;5094725;28;20526;-69
2021/11/17 07:39:14;;;;;;;0.40;0.30;;;;;;;5.76;100.00;101389.78;5094944;28;20444;-69
2021/11/17 07:41:41;;;;;;;0.40;0.30;;;;;;;5.77;100.00;101393.28;5094627;28;20465;-69
2021/11/17 07:44:08;;;;;;;0.77;0.73;;;;;;;5.79;100.00;101386.56;5094682;28;20490;-69
2021/11/17 07:46:35;;;;;;;0.40;0.30;;;;;;;5.80;100.00;101390.91;5094668;28;20445;-69
2021/11/17 07:49:01;;;;;;;1.30;1.30;;;;;;;5.77;100.00;101391.38;5094268;28;20449;-69
2021/11/17 07:51:28;;;;;;;0.40;0.30;;;;;;;5.78;100.00;101398.38;5094412;28;20463;-69
2021/11/17 07:53:55;;;;;;;0.40;0.30;;;;;;;5.76;100.00;101405.09;5094462;28;20444;-69
2021/11/17 07:56:22;;;;;;;0.40;0.20;;;;;;;5.80;100.00;101396.28;5094328;28;20839;-72
2021/11/17 07:58:49;;;;;;;0.40;0.30;;;;;;;5.87;100.00;101392.59;5094447;28;20444;-70
2021/11/17 08:01:16;;;;;;;0.40;0.20;;;;;;;5.87;100.00;101395.28;5094264;28;20509;-69
2021/11/17 08:03:45;;;;;;;0.40;0.20;;;;;;;5.91;100.00;101393.72;5094231;28;20467;-69
2021/11/17 08:06:14;;;;;;;0.40;0.20;;;;;;;5.88;100.00;101394.19;5094256;28;20440;-69
2021/11/17 08:08:41;;;;;;;0.40;0.30;;;;;;;5.89;100.00;101387.75;5094256;28;20441;-69
2021/11/17 08:11:12;;;;;;;0.40;0.30;;;;;;;5.81;100.00;101392.53;5094123;28;20460;-69
2021/11/17 08:13:39;;;;;;;0.40;0.30;;;;;;;5.79;100.00;101389.25;5094178;28;20421;-70
2021/11/17 08:16:07;;;;;;;0.40;0.20;;;;;;;5.80;100.00;101390.91;5094005;28;20484;-69
2021/11/17 08:18:35;;;;;;;2.43;2.23;;;;;;;5.76;100.00;101387.09;5094025;28;20806;-70
2021/11/17 08:21:02;;;;;;;0.40;0.30;;;;;;;5.77;100.00;101391.38;5093947;28;20492;-71
2021/11/17 08:23:29;;;;;;;0.40;0.20;;;;;;;5.77;100.00;101379.84;5094059;28;20539;-71
2021/11/17 08:25:56;;;;;;;0.40;0.30;;;;;;;5.79;100.00;101378.50;5093940;28;20429;-70
2021/11/17 08:28:24;;;;;;;1.00;0.93;;;;;;;5.81;100.00;101387.16;5093578;28;20442;-70
2021/11/17 08:30:51;;;;;;;0.40;0.30;;;;;;;5.89;100.00;101377.84;5093361;28;20479;-69
2021/11/17 08:33:18;;;;;;;0.40;0.23;;;;;;;5.91;100.00;101381.06;5093802;28;20440;-69
2021/11/17 08:35:46;;;;;;;0.40;0.30;;;;;;;5.92;100.00;101365.78;5093696;28;20530;-69
2021/11/17 08:38:16;;;;;;;0.40;0.30;;;;;;;5.92;100.00;101373.84;5093697;28;20483;-70
2021/11/17 08:40:46;;;;;;;0.40;0.30;;;;;;;5.91;100.00;101369.50;5093911;28;20456;-70
2021/11/17 08:43:13;;;;;;;0.40;0.30;;;;;;;5.95;100.00;101370.69;5093913;28;20442;-70
2021/11/17 08:45:42;;;;;;;0.40;0.20;;;;;;;5.96;100.00;101374.97;5093507;28;20448;-70
2021/11/17 08:48:11;;;;;;;0.97;0.87;;;;;;;5.96;100.00;101375.78;5093263;28;20432;-70
2021/11/17 08:50:39;;;;;;;0.40;0.30;;;;;;;6.01;100.00;101369.66;5093380;28;20473;-71
2021/11/17 08:53:08;;;;;;;0.40;0.30;;;;;;;6.05;100.00;101381.53;5093487;28;20453;-71
2021/11/17 08:55:36;;;;;;;0.40;0.30;;;;;;;6.05;100.00;101381.53;5093364;28;20480;-71
2021/11/17 08:58:05;;;;;;;0.40;0.30;;;;;;;6.02;100.00;101379.34;5093328;28;20445;-70
2021/11/17 09:00:32;;;;;;;0.40;0.30;;;;;;;6.01;100.00;101375.03;5093321;28;20475;-69
2021/11/17 09:03:03;;;;;;;0.40;0.20;;;;;;;6.02;100.00;101387.41;5093251;28;20507;-68
2021/11/17 09:05:33;;;;;;;5.97;1.90;;;;;;;6.00;100.00;101378.78;5093335;28;20420;-68
2021/11/17 09:08:00;;;;;;;0.40;0.30;;;;;;;5.91;100.00;101377.59;5093191;28;20901;-70
2021/11/17 09:10:29;;;;;;;0.40;0.20;;;;;;;5.93;100.00;101375.47;5093205;28;20439;-70
2021/11/17 09:12:57;;;;;;;0.40;0.30;;;;;;;5.91;100.00;101374.91;5093317;28;20444;-68
2021/11/17 09:15:27;;;;;;;0.40;0.30;;;;;;;5.92;100.00;101376.53;5092833;28;20992;-69
2021/11/17 09:17:53;;;;;;;0.40;0.30;;;;;;;5.93;100.00;101373.63;5093198;28;20445;-69
2021/11/17 09:20:22;;;;;;;0.40;0.30;;;;;;;5.95;100.00;101366.09;5093156;28;20436;-69
2021/11/17 09:22:49;;;;;;;0.40;0.20;;;;;;;5.97;100.00;101374.72;5092836;28;20943;-69
2021/11/17 09:25:17;;;;;;;0.40;0.30;;;;;;;6.00;100.00;101376.09;5093170;28;20436;-69
2021/11/17 09:27:43;;;;;;;0.40;0.20;;;;;;;6.05;100.00;101376.16;5093129;28;20441;-69
2021/11/17 09:30:13;;;;;;;0.40;0.20;;;;;;;6.08;100.00;101375.66;5093046;28;20444;-69
2021/11/17 09:32:40;;;;;;;0.70;0.70;;;;;;;6.09;100.00;101368.41;5093064;28;20451;-69
2021/11/17 09:35:10;;;;;;;0.40;0.27;;;;;;;6.06;100.00;101372.41;5092892;28;20447;-69
2021/11/17 09:37:39;;;;;;;0.40;0.30;;;;;;;6.06;100.00;101373.25;5092341;28;20456;-69
2021/11/17 09:40:09;;;;;;;2.00;1.90;;;;;;;6.03;100.00;101368.34;5092995;28;20515;-69
2021/11/17 09:42:36;;;;;;;0.40;0.20;;;;;;;6.04;100.00;101363.78;5093288;28;20464;-70
2021/11/17 09:45:04;;;;;;;0.40;0.30;;;;;;;6.06;100.00;101361.66;5096259;28;20467;-69
2021/11/17 09:47:34;;;;;;;0.40;0.30;;;;;;;6.13;100.00;101364.97;5096952;28;20884;-69
2021/11/17 09:50:05;;;;;;;0.40;0.30;;;;;;;6.17;100.00;101360.72;5096864;28;20440;-69
2021/11/17 09:52:37;;;;;;;0.40;0.20;;;;;;;6.22;100.00;101347.31;5096765;28;20522;-69
2021/11/17 09:55:11;;;;;;;0.40;0.30;;;;;;;6.23;100.00;101348.94;5096730;28;20431;-69
2021/11/17 09:57:42;;;;;;;0.97;0.40;;;;;;;6.23;100.00;101358.88;5096849;28;20428;-69
2021/11/17 10:00:14;;;;;;;0.40;0.30;;;;;;;6.23;100.00;101364.25;5096756;28;20460;-70
2021/11/17 10:02:44;;;;;;;0.40;0.30;;;;;;;6.27;100.00;101360.00;5096716;28;20429;-69
2021/11/17 10:05:19;;;;;;;0.40;0.23;;;;;;;6.29;100.00;101361.38;5096570;28;20424;-69
2021/11/17 10:08:12;;;;;;;0.40;0.30;;;;;;;6.31;100.00;101363.81;5096619;28;20424;-69
2021/11/17 10:13:34;;;;;;;0.40;0.30;;;;;;;6.30;100.00;101346.06;5096395;28;20420;-69
2021/11/17 10:16:01;;;;;;;0.40;0.30;;;;;;;6.35;100.00;101345.28;5096017;28;21039;-69
2021/11/17 10:18:35;;;;;;;0.73;0.73;;;;;;;6.34;100.00;101340.97;5096282;28;20444;-69
2021/11/17 10:21:08;;;;;;;0.40;0.30;;;;;;;6.38;100.00;101345.59;5096244;28;20559;-69
2021/11/17 10:23:37;;;;;;;0.40;0.20;;;;;;;6.35;100.00;101351.47;5096280;28;20436;-69
2021/11/17 10:26:11;;;;;;;0.40;0.20;;;;;;;6.40;100.00;101340.75;5096191;28;20436;-68
2021/11/17 10:28:49;;;;;;;0.40;0.23;;;;;;;6.39;99.37;101333.75;5094946;28;20455;-69
2021/11/17 10:31:18;;;;;;;0.40;0.30;;;;;;;6.38;99.63;101336.72;5113365;22;20532;-81
2021/11/17 10:34:05;;;;;;;0.40;0.30;;;;;;;6.44;99.94;101338.38;5122326;28;20534;-81
2021/11/17 10:36:36;;;;;;;0.40;0.30;;;;;;;6.49;99.65;101333.03;5103091;28;20829;-81
2021/11/17 10:39:16;;;;;;;0.40;0.30;;;;;;;6.46;99.64;101330.84;5102155;28;20796;-81
2021/11/17 10:42:01;;;;;;;0.40;0.30;;;;;;;6.45;100.00;101338.13;5103270;28;20432;-80
2021/11/17 10:44:53;;;;;;;0.40;0.30;;;;;;;6.45;100.00;101332.75;5102575;28;20460;-81
2021/11/17 10:47:24;;;;;;;0.40;0.23;;;;;;;6.50;100.00;101334.66;5077649;28;20445;-81
2021/11/17 10:49:55;;;;;;;0.40;0.23;;;;;;;6.51;100.00;101330.94;5103527;28;20409;-80
2021/11/17 10:52:31;;;;;;;0.40;0.30;;;;;;;6.50;100.00;101327.41;5104189;28;20429;-81
2021/11/17 10:55:00;;;;;;;0.40;0.30;;;;;;;6.54;100.00;101330.41;5105135;28;20455;-81
2021/11/17 10:57:30;;;;;;;0.40;0.30;;;;;;;6.56;100.00;101333.66;5103720;28;20487;-81
2021/11/17 10:59:59;;;;;;;0.40;0.20;;;;;;;6.55;99.58;101332.00;5106045;28;20424;-81
2021/11/17 11:02:29;;;;;;;0.40;0.30;;;;;;;6.51;99.27;101339.00;5107476;28;20428;-81
2021/11/17 11:05:00;;;;;;;0.40;0.27;;;;;;;6.46;99.16;101334.38;5102700;28;20455;-81
2021/11/17 11:07:31;;;;;;;2.83;2.63;;;;;;;6.45;99.65;101330.03;5106218;28;20421;-81
2021/11/17 11:10:01;;;;;;;0.40;0.30;;;;;;;6.50;100.00;101326.59;5109183;28;20441;-81
2021/11/17 11:12:31;;;;;;;0.40;0.30;;;;;;;6.49;99.62;101331.16;5104901;28;20436;-81
2021/11/17 11:15:04;;;;;;;0.40;0.30;;;;;;;6.46;99.07;101338.94;5101109;28;20819;-80
2021/11/17 11:17:33;;;;;;;0.40;0.20;;;;;;;6.49;99.83;101346.50;5101562;28;20487;-81
2021/11/17 11:20:30;;;;;;;0.40;0.20;;;;;;;6.54;100.00;101349.22;5101755;28;20819;-81
2021/11/17 11:23:22;;;;;;;0.40;0.30;;;;;;;6.56;99.44;101344.44;5103389;28;20446;-80
2021/11/17 11:25:57;;;;;;;0.40;0.30;;;;;;;6.54;98.97;101347.34;5097949;28;20476;-82
2021/11/17 11:28:39;;;;;;;0.40;0.30;;;;;;;6.51;99.56;101339.00;5097821;28;20428;-83
2021/11/17 11:31:30;;;;;;;0.40;0.30;;;;;;;6.48;100.00;101339.50;5097522;28;20463;-82
2021/11/17 11:34:48;;;;;;;0.40;0.30;;;;;;;6.45;100.00;101343.50;5098011;28;20461;-81
2021/11/17 11:37:57;;;;;;;0.40;0.30;;;;;;;6.54;100.00;101336.59;5097821;28;20476;-82
2021/11/17 11:41:13;;;;;;;0.40;0.20;;;;;;;6.56;100.00;101328.28;5084989;28;20459;-81
2021/11/17 11:43:42;;;;;;;0.40;0.30;;;;;;;6.55;100.00;101321.25;5097970;28;20428;-80
2021/11/17 11:46:32;;;;;;;0.40;0.20;;;;;;;6.53;99.94;101326.91;5097480;28;20463;-79
2021/11/17 11:49:05;;;;;;;0.40;0.30;;;;;;;6.49;99.68;101325.78;5098169;28;20905;-79
2021/11/17 11:52:07;;;;;;;0.40;0.30;;;;;;;6.52;100.00;101332.53;5098119;28;20872;-79
2021/11/17 11:54:57;;;;;;;0.40;0.30;;;;;;;6.52;100.00;101332.53;4995237;28;21001;-79
2021/11/17 11:57:30;;;;;;;0.40;0.30;;;;;;;6.52;99.63;101337.94;5093834;28;20484;-79
2021/11/17 11:59:58;;;;;;;0.40;0.30;;;;;;;6.47;98.98;101341.38;5099504;28;20486;-80
2021/11/17 12:02:27;;;;;;;0.40;0.23;;;;;;;6.47;98.80;101340.56;5099222;28;20926;-79
2021/11/17 12:04:57;;;;;;;0.40;0.30;;;;;;;6.49;98.86;101338.44;5099409;28;20513;-79
2021/11/17 12:07:27;;;;;;;0.40;0.40;;;;;;;6.48;98.38;101331.44;5102939;28;20457;-79
2021/11/17 12:10:01;;;;;;;0.40;0.23;;;;;;;6.54;98.15;101333.09;5102336;28;20440;-81
2021/11/17 12:12:33;;;;;;;0.40;0.20;;;;;;;6.65;97.18;101334.00;5102568;28;20936;-80
2021/11/17 12:15:17;;;;;;;0.40;0.30;;;;;;;6.78;96.29;101323.63;5102156;28;20488;-80
2021/11/17 12:17:45;;;;;;;0.40;0.20;;;;;;;6.91;95.32;101326.94;5102700;28;20465;-81
2021/11/17 12:20:24;;;;;;;0.40;0.30;;;;;;;7.01;95.14;101319.75;5103264;28;21259;-81
2021/11/17 12:22:53;;;;;;;0.40;0.30;;;;;;;7.13;95.00;101316.03;5103967;28;20412;-80
2021/11/17 12:25:27;;;;;;;0.40;0.30;;;;;;;7.15;93.47;101312.03;5102739;28;20467;-81
2021/11/17 12:27:59;;;;;;;0.40;0.20;;;;;;;7.24;92.75;101323.13;5103613;28;20428;-80
2021/11/17 12:30:35;;;;;;;0.73;0.73;;;;;;;7.26;92.34;101318.28;5100927;28;20433;-80
2021/11/17 12:33:09;;;;;;;0.40;0.30;;;;;;;7.31;92.28;101318.31;5104619;28;20443;-81
2021/11/17 12:35:40;;;;;;;0.40;0.20;;;;;;;7.29;91.60;101323.94;5102840;28;20845;-81
2021/11/17 12:38:09;;;;;;;0.40;0.30;;;;;;;7.27;91.74;101326.13;5103519;28;20540;-80
2021/11/17 12:40:40;;;;;;;0.40;0.30;;;;;;;7.30;90.90;101324.75;5105330;28;20443;-80
2021/11/17 12:43:12;;;;;;;0.40;0.30;;;;;;;7.30;91.35;101322.91;5101463;28;20428;-81
2021/11/17 12:45:45;;;;;;;0.40;0.20;;;;;;;7.27;91.55;101304.56;5101797;28;20452;-81
2021/11/17 12:48:22;;;;;;;0.40;0.27;;;;;;;7.24;91.14;101309.66;5103117;28;20599;-81
2021/11/17 12:50:53;;;;;;;0.40;0.30;;;;;;;7.24;91.10;101307.75;5106858;28;20435;-80
2021/11/17 12:53:23;;;;;;;0.40;0.30;;;;;;;7.25;91.40;101312.06;5106908;28;20432;-81
2021/11/17 12:55:52;;;;;;;0.40;0.30;;;;;;;7.33;91.47;101322.38;5106656;28;20456;-80
2021/11/17 12:58:32;;;;;;;0.40;0.30;;;;;;;7.32;91.14;101320.75;5106474;28;20484;-81
2021/11/17 13:01:14;;;;;;;0.40;0.30;;;;;;;7.32;90.55;101311.84;5107418;28;20444;-81
2021/11/17 13:04:00;;;;;;;0.40;0.30;;;;;;;7.37;91.40;101322.66;5108780;28;20473;-80
2021/11/17 13:06:29;;;;;;;0.40;0.30;;;;;;;7.41;91.46;101328.34;5096879;28;20524;-79
2021/11/17 13:09:09;;;;;;;0.40;0.27;;;;;;;7.49;91.43;101314.38;5094582;28;20459;-79
2021/11/17 13:11:50;;;;;;;0.40;0.30;;;;;;;7.53;91.53;101312.78;5095435;28;20960;-80
2021/11/17 13:14:24;;;;;;;0.40;0.20;;;;;;;7.50;90.73;101319.50;5097120;28;21003;-78
2021/11/17 13:16:52;;;;;;;0.40;0.23;;;;;;;7.46;89.87;101317.59;5094893;28;20475;-78
2021/11/17 13:19:22;;;;;;;0.40;0.20;;;;;;;7.42;90.78;101325.38;5098766;28;20950;-78
2021/11/17 13:21:54;;;;;;;0.40;0.20;;;;;;;7.36;90.80;101326.44;5100363;28;20420;-80
2021/11/17 13:24:35;;;;;;;0.40;0.30;;;;;;;7.37;91.21;101322.66;5099739;28;20815;-79
2021/11/17 13:27:24;;;;;;;0.40;0.30;;;;;;;7.33;91.28;101322.38;5100767;28;20432;-79
2021/11/17 13:29:55;;;;;;;0.40;0.30;;;;;;;7.37;91.59;101322.66;5100479;28;20433;-80
2021/11/17 13:32:27;;;;;;;0.40;0.30;;;;;;;7.30;91.61;101308.59;5100748;28;20459;-79
2021/11/17 13:34:56;;;;;;;0.40;0.30;;;;;;;7.31;92.27;101305.66;5099984;28;20473;-79
2021/11/17 13:37:34;;;;;;;0.40;0.30;;;;;;;7.36;92.75;101304.88;5100166;28;20487;-79
2021/11/17 13:40:04;;;;;;;0.40;0.30;;;;;;;7.41;92.26;101296.00;5100133;28;20440;-80
2021/11/17 13:42:31;;;;;;;0.40;0.30;;;;;;;7.44;91.49;101290.09;5099973;28;20409;-79
2021/11/17 13:45:00;;;;;;;0.40;0.33;;;;;;;7.55;91.19;101291.75;5100217;28;20972;-79
2021/11/17 13:47:30;;;;;;;0.87;0.87;;;;;;;7.58;91.22;101299.31;5100374;28;20433;-79
2021/11/17 13:49:58;;;;;;;0.40;0.30;;;;;;;7.61;90.67;101301.47;5099997;28;20470;-79
2021/11/17 13:52:28;;;;;;;0.40;0.30;;;;;;;7.57;90.93;101295.00;5099324;28;20821;-79
2021/11/17 13:54:55;;;;;;;0.40;0.30;;;;;;;7.55;91.43;101287.16;5100495;28;20475;-79
2021/11/17 13:57:22;;;;;;;0.40;0.30;;;;;;;7.56;91.09;101283.38;5100951;28;20487;-79
2021/11/17 13:59:49;;;;;;;0.40;0.30;;;;;;;7.58;91.96;101283.16;5101062;28;20956;-79
2021/11/17 14:02:17;;;;;;;0.40;0.30;;;;;;;7.51;91.12;101280.69;5100980;28;20490;-78
2021/11/17 14:04:44;;;;;;;0.40;0.30;;;;;;;7.50;90.72;101289.03;5099140;28;20491;-79
2021/11/17 14:07:14;;;;;;;0.40;0.23;;;;;;;7.47;91.77;101279.56;5098778;28;20444;-79
2021/11/17 14:09:41;;;;;;;0.40;0.30;;;;;;;7.48;91.56;101291.16;5098375;28;20455;-79
2021/11/17 14:12:08;;;;;;;0.40;0.30;;;;;;;7.50;91.65;101276.38;5098314;28;20448;-79
2021/11/17 14:14:36;;;;;;;0.40;0.30;;;;;;;7.47;91.31;101279.56;5098874;28;20468;-80
2021/11/17 14:17:04;;;;;;;0.40;0.30;;;;;;;7.46;91.68;101286.06;5098909;28;20483;-79
2021/11/17 14:19:32;;;;;;;0.40;0.30;;;;;;;7.48;91.54;101289.31;5098160;28;20457;-79
2021/11/17 14:21:58;;;;;;;0.40;0.30;;;;;;;7.53;91.51;101294.72;5099297;28;20527;-78
2021/11/17 14:24:26;;;;;;;0.40;0.30;;;;;;;7.56;92.10;101287.97;5098376;28;20543;-79
2021/11/17 14:26:53;;;;;;;0.40;0.23;;;;;;;7.59;92.11;101285.56;5098077;28;20949;-79
2021/11/17 14:29:23;;;;;;;0.40;0.30;;;;;;;7.62;91.19;101294.22;5097279;28;20436;-80
2021/11/17 14:31:52;;;;;;;0.40;0.30;;;;;;;7.61;91.34;101298.78;5098294;28;20457;-78
2021/11/17 14:34:20;;;;;;;0.40;0.30;;;;;;;7.59;91.63;101303.63;5098611;28;20523;-79
2021/11/17 14:36:50;;;;;;;0.40;0.23;;;;;;;7.58;91.49;101302.00;5097951;28;20433;-79